Norbank — PGIS — position and weather

sailwx.info

Track history (hours):
 
Tides and Currents Weather Stations Pressure Air Temp Water Temp Dewpoint Dewpoint Depression Visibility Wind Speed Wind Dir Waves Ship Positions

Norbank

Operator: P & O Ferries

Last reported at 2018-Oct-20 11:57 UTC. Time now 2018-Oct-20 13:41 UTC.
Position N 53°35' W 004°12'.

Length 167 m; draft 5.6 m.

Type: Ship (hazmat cat A). MMSI: 246213000.

Date/timePositionNaut miles runAvg speedWind from/ knotsBaromVisibWave heightAir tempDewpointWater temp
2018-Oct-20 11:57N 53°35' W 004°12'1919.4
2018-Oct-20 10:57N 53°33' W 003°40'919.6
2018-Oct-20 10:30N 53°32' W 003°25'818.9
2018-Oct-20 10:04N 53°32' W 003°11'119.2
2018-Oct-20 10:01N 53°32' W 003°09'713.5
2018-Oct-20 09:30N 53°27' W 003°01'0 0.0
2018-Oct-20 09:03N 53°27' W 003°01'0 0.0
2018-Oct-20 09:00N 53°27' W 003°01'0 0.9
2018-Oct-20 08:28N 53°27' W 003°01'0 0.0
2018-Oct-20 08:01N 53°27' W 003°01'0 0.0
2018-Oct-20 07:58N 53°27' W 003°01'0 0.0
2018-Oct-20 07:28N 53°27' W 003°01'0 0.0
2018-Oct-20 07:01N 53°27' W 003°01'0 0.0
2018-Oct-20 06:58N 53°27' W 003°01'0 0.0
2018-Oct-20 06:30N 53°27' W 003°01'0 0.0
2018-Oct-20 06:03N 53°27' W 003°01'0 0.0
2018-Oct-20 05:57N 53°27' W 003°01'0 0.0
2018-Oct-20 05:30N 53°27' W 003°01'0 0.0
2018-Oct-20 05:03N 53°27' W 003°01'0 0.0
2018-Oct-20 05:00N 53°27' W 003°01'0 0.0
2018-Oct-20 04:30N 53°27' W 003°01'0 0.9
2018-Oct-20 04:02N 53°27' W 003°01'0 0.9
2018-Oct-20 03:59N 53°27' W 003°01'0 0.1
2018-Oct-20 03:30N 53°27' W 003°01'4 8.6
2018-Oct-20 03:03N 53°30' W 003°05'115.5
2018-Oct-20 03:00N 53°31' W 003°06'816.1
2018-Oct-20 02:30N 53°31' W 003°20'818.2
2018-Oct-20 02:03N 53°31' W 003°33'118.6
2018-Oct-20 02:00N 53°31' W 003°35'1019.4
2018-Oct-20 01:30N 53°33' W 003°51'3619.6
2018-Oct-19 23:39N 53°34' W 004°52'318.0
2018-Oct-19 23:30N 53°33' W 004°57'2218.6
2018-Oct-19 22:18N 53°27' W 005°32'1019.0
2018-Oct-19 21:46N 53°24' W 005°49'618.7
2018-Oct-19 21:27N 53°22' W 005°58'9 6.3
2018-Oct-19 20:03N 53°21' W 006°13'0 0.0
2018-Oct-19 16:46N 53°21' W 006°13'0 0.5
2018-Oct-19 16:12N 53°21' W 006°13'2 7.5
2018-Oct-19 15:57N 53°21' W 006°10'715.7
2018-Oct-19 15:29N 53°22' W 005°58'1018.6
2018-Oct-19 14:58N 53°25' W 005°42'918.7
2018-Oct-19 14:30N 53°27' W 005°28'6517.7
2018-Oct-19 10:51N 53°33' W 003°40'617.4
2018-Oct-19 10:30N 53°33' W 003°30'817.2
2018-Oct-19 10:03N 53°32' W 003°17'117.4
2018-Oct-19 10:00N 53°32' W 003°16'816.4
2018-Oct-19 09:30N 53°28' W 003°03'2 3.8
2018-Oct-19 09:03N 53°27' W 003°01'0 0.0
2018-Oct-19 09:01N 53°27' W 003°01'0 0.9
2018-Oct-19 08:30N 53°27' W 003°01'0 0.0
2018-Oct-19 08:01N 53°27' W 003°01'0 0.0
2018-Oct-19 07:52N 53°27' W 003°01'0 0.0
2018-Oct-19 07:28N 53°27' W 003°01'0 0.0
2018-Oct-19 07:01N 53°27' W 003°01'0 0.0
2018-Oct-19 06:27N 53°27' W 003°01'0 0.0
2018-Oct-19 06:03N 53°27' W 003°01'0 0.0
2018-Oct-19 06:00N 53°27' W 003°01'0 0.0
2018-Oct-19 05:27N 53°27' W 003°01'0 0.0
2018-Oct-19 05:03N 53°27' W 003°01'0 0.0
2018-Oct-19 05:00N 53°27' W 003°01'0 0.0
2018-Oct-19 04:29N 53°27' W 003°01'0 1.0
2018-Oct-19 04:03N 53°27' W 003°01'0 0.3
2018-Oct-19 04:00N 53°27' W 003°01'0 0.2
2018-Oct-19 03:30N 53°27' W 003°01'714.5
2018-Oct-19 03:04N 53°32' W 003°09'118.6
2018-Oct-19 03:00N 53°32' W 003°10'917.6
2018-Oct-19 02:31N 53°32' W 003°25'816.7
2018-Oct-19 02:03N 53°32' W 003°38'117.6
2018-Oct-19 02:01N 53°32' W 003°39'1418.4
2018-Oct-19 01:16N 53°33' W 004°02'5518.2
2018-Oct-18 22:16N 53°26' W 005°33'2018.7
2018-Oct-18 21:13N 53°20' W 006°04'313.5
2018-Oct-18 20:58N 53°21' W 006°10'2 0.7
2018-Oct-18 18:09N 53°21' W 006°13'1 0.7
2018-Oct-18 16:06N 53°21' W 006°11'110.2
2018-Oct-18 16:00N 53°21' W 006°09'816.0
2018-Oct-18 15:30N 53°23' W 005°56'918.0
2018-Oct-18 15:01N 53°25' W 005°42'018.5
2018-Oct-18 15:00N 53°25' W 005°41'917.3
2018-Oct-18 14:30N 53°27' W 005°27'6217.8
2018-Oct-18 11:02N 53°33' W 003°44'219.7
2018-Oct-18 10:57N 53°33' W 003°41'919.6
2018-Oct-18 10:30N 53°33' W 003°27'919.1
2018-Oct-18 10:03N 53°31' W 003°13'118.1
2018-Oct-18 10:00N 53°32' W 003°11'815.3
2018-Oct-18 09:30N 53°27' W 003°01'0 0.3
2018-Oct-18 09:03N 53°27' W 003°01'0 0.5
2018-Oct-18 09:00N 53°27' W 003°01'0 0.8
2018-Oct-18 08:30N 53°27' W 003°01'0 0.0
2018-Oct-18 08:03N 53°27' W 003°01'0 0.0
2018-Oct-18 08:00N 53°27' W 003°01'0 0.0
2018-Oct-18 07:26N 53°27' W 003°01'0 0.0
2018-Oct-18 07:02N 53°27' W 003°01'0 0.0
2018-Oct-18 06:59N 53°27' W 003°01'0 0.0
2018-Oct-18 06:29N 53°27' W 003°01'0 0.0
2018-Oct-18 06:02N 53°27' W 003°01'0 0.0
2018-Oct-18 05:59N 53°27' W 003°01'0 0.0
2018-Oct-18 05:29N 53°27' W 003°01'0 0.0
2018-Oct-18 05:01N 53°27' W 003°01'0 0.0
2018-Oct-18 04:58N 53°27' W 003°01'0 0.1
2018-Oct-18 04:28N 53°27' W 003°01'0 1.0
2018-Oct-18 04:02N 53°27' W 003°01'0 0.0
2018-Oct-18 03:59N 53°27' W 003°01'0 0.3
2018-Oct-18 03:31N 53°27' W 003°01'714.4
2018-Oct-18 03:03N 53°32' W 003°09'118.8
2018-Oct-18 03:00N 53°32' W 003°10'918.6
2018-Oct-18 02:30N 53°31' W 003°26'918.6
2018-Oct-18 02:03N 53°30' W 003°40'116.9
2018-Oct-18 02:00N 53°30' W 003°42'6716.4
2018-Oct-17 21:53N 53°26' W 005°35'918.8
2018-Oct-17 21:24N 53°23' W 005°49'918.7
2018-Oct-17 20:56N 53°20' W 006°03'611.2
2018-Oct-17 20:25N 53°21' W 006°12'0 0.8
2018-Oct-17 19:54N 53°21' W 006°13'0 0.0
2018-Oct-17 17:53N 53°21' W 006°13'1 0.5
2018-Oct-17 16:02N 53°21' W 006°11'0 8.9
2018-Oct-17 15:59N 53°21' W 006°11'714.7
2018-Oct-17 15:29N 53°22' W 005°59'818.4
2018-Oct-17 15:02N 53°24' W 005°45'118.0
2018-Oct-17 14:59N 53°25' W 005°44'918.0
2018-Oct-17 14:28N 53°27' W 005°29'6616.7
2018-Oct-17 10:31N 53°33' W 003°38'016.2
2018-Oct-17 10:31N 53°33' W 003°38'716.6
2018-Oct-17 10:04N 53°33' W 003°26'116.6
2018-Oct-17 10:01N 53°33' W 003°24'816.8
2018-Oct-17 09:31N 53°32' W 003°10'716.3
2018-Oct-17 09:04N 53°27' W 003°01'0 3.0
2018-Oct-17 09:00N 53°27' W 003°01'0 0.1
2018-Oct-17 08:30N 53°27' W 003°01'0 1.0
2018-Oct-17 08:03N 53°27' W 003°01'0 0.0
2018-Oct-17 08:00N 53°27' W 003°01'0 0.0
2018-Oct-17 07:30N 53°27' W 003°01'0 0.0
2018-Oct-17 07:03N 53°27' W 003°01'0 0.0
2018-Oct-17 06:59N 53°27' W 003°01'0 0.0
2018-Oct-17 06:29N 53°27' W 003°01'0 0.0
2018-Oct-17 06:02N 53°27' W 003°01'0 0.0
2018-Oct-17 05:59N 53°27' W 003°01'0 0.0
2018-Oct-17 05:29N 53°27' W 003°01'0 0.0
2018-Oct-17 05:02N 53°27' W 003°01'0 0.0
2018-Oct-17 04:59N 53°27' W 003°01'0 0.0
2018-Oct-17 04:28N 53°27' W 003°01'0 0.5
2018-Oct-17 04:03N 53°27' W 003°01'0 2.7
2018-Oct-17 03:58N 53°27' W 003°01'0 0.3
2018-Oct-17 03:30N 53°27' W 003°01'614.4
2018-Oct-17 03:03N 53°32' W 003°08'119.1
2018-Oct-17 03:00N 53°32' W 003°10'918.3
2018-Oct-17 02:30N 53°31' W 003°25'716.6
2018-Oct-17 02:03N 53°31' W 003°38'116.2
2018-Oct-17 02:00N 53°31' W 003°39'916.7
2018-Oct-17 01:26N 53°32' W 003°55'5816.6
2018-Oct-16 21:55N 53°27' W 005°32'2216.2
2018-Oct-16 20:34N 53°21' W 006°08'111.0
2018-Oct-16 20:29N 53°21' W 006°10'2 0.5
2018-Oct-16 16:29N 53°21' W 006°13'1 2.2
2018-Oct-16 16:03N 53°21' W 006°12'0 6.9
2018-Oct-16 16:00N 53°21' W 006°11'714.1
2018-Oct-16 15:30N 53°22' W 005°59'816.3
2018-Oct-16 15:02N 53°25' W 005°47'116.2
2018-Oct-16 15:00N 53°25' W 005°46'917.1
2018-Oct-16 14:30N 53°26' W 005°32'5616.1
2018-Oct-16 11:01N 53°34' W 003°59'1316.1
2018-Oct-16 10:13N 53°33' W 003°37'316.8
2018-Oct-16 10:03N 53°33' W 003°33'116.9
2018-Oct-16 10:00N 53°33' W 003°31'917.1
2018-Oct-16 09:30N 53°32' W 003°17'715.8
2018-Oct-16 09:03N 53°30' W 003°06'117.5
2018-Oct-16 09:01N 53°29' W 003°05'3 6.6
2018-Oct-16 08:30N 53°27' W 003°01'0 1.0
2018-Oct-16 08:03N 53°27' W 003°01'0 0.0
2018-Oct-16 08:00N 53°27' W 003°01'0 0.0
2018-Oct-16 07:30N 53°27' W 003°01'0 0.0
2018-Oct-16 07:03N 53°27' W 003°01'0 0.0
2018-Oct-16 07:00N 53°27' W 003°01'0 0.0
2018-Oct-16 06:30N 53°27' W 003°01'0 0.0
2018-Oct-16 06:02N 53°27' W 003°01'0 0.0
2018-Oct-16 05:59N 53°27' W 003°01'0 0.0
2018-Oct-16 05:29N 53°27' W 003°01'0 0.0
2018-Oct-16 05:02N 53°27' W 003°01'0 0.0
2018-Oct-16 04:59N 53°27' W 003°01'0 0.0
2018-Oct-16 04:29N 53°27' W 003°01'0 0.5
2018-Oct-16 04:03N 53°27' W 003°01'0 2.7
2018-Oct-16 04:00N 53°27' W 003°01'0 0.7
2018-Oct-16 03:30N 53°27' W 003°01'613.6
2018-Oct-16 03:03N 53°31' W 003°08'118.0
2018-Oct-16 03:00N 53°32' W 003°09'917.8
2018-Oct-16 02:30N 53°31' W 003°24'715.7
2018-Oct-16 02:03N 53°31' W 003°36'116.0
2018-Oct-16 02:01N 53°31' W 003°37'816.2
2018-Oct-16 01:31N 53°32' W 003°51'4016.2
2018-Oct-15 23:02N 53°34' W 004°58'3116.9
2018-Oct-15 21:13N 53°24' W 005°47'316.7
2018-Oct-15 21:02N 53°23' W 005°52'616.8
2018-Oct-15 20:39N 53°21' W 006°02'611.9
2018-Oct-15 20:08N 53°21' W 006°12'1 2.8
2018-Oct-15 19:55N 53°21' W 006°13'0 0.0
2018-Oct-15 16:29N 53°21' W 006°13'4 5.9
2018-Oct-15 15:50N 53°20' W 006°07'714.9
2018-Oct-15 15:24N 53°23' W 005°56'1216.4
2018-Oct-15 14:41N 53°25' W 005°37'416.9
2018-Oct-15 14:27N 53°26' W 005°31'6615.8
2018-Oct-15 10:16N 53°33' W 003°40'417.0
2018-Oct-15 10:03N 53°33' W 003°34'117.0
2018-Oct-15 10:00N 53°33' W 003°32'817.2
2018-Oct-15 09:30N 53°32' W 003°18'716.4
2018-Oct-15 09:03N 53°31' W 003°06'116.7
2018-Oct-15 09:00N 53°30' W 003°05'4 7.6
2018-Oct-15 08:30N 53°27' W 003°01'0 0.8
2018-Oct-15 08:03N 53°27' W 003°01'0 2.8
2018-Oct-15 08:00N 53°27' W 003°01'0 0.1
2018-Oct-15 07:28N 53°27' W 003°01'0 0.0
2018-Oct-15 07:01N 53°27' W 003°01'0 0.0
2018-Oct-15 06:58N 53°27' W 003°01'0 0.0
2018-Oct-15 06:28N 53°27' W 003°01'0 0.0
2018-Oct-15 06:01N 53°27' W 003°01'0 0.0
2018-Oct-15 05:58N 53°27' W 003°01'0 0.0
2018-Oct-15 05:28N 53°27' W 003°01'0 0.0
2018-Oct-15 05:03N 53°27' W 003°01'0 0.0
2018-Oct-15 05:00N 53°27' W 003°01'0 0.0
2018-Oct-15 04:30N 53°27' W 003°01'0 0.9
2018-Oct-15 04:02N 53°27' W 003°01'0 0.0
2018-Oct-15 03:59N 53°27' W 003°01'0 0.3
2018-Oct-15 03:31N 53°27' W 003°01'714.4
2018-Oct-15 03:03N 53°32' W 003°09'118.4
2018-Oct-15 03:00N 53°32' W 003°10'918.7
2018-Oct-15 02:30N 53°31' W 003°26'919.2
2018-Oct-15 02:03N 53°31' W 003°41'119.2
2018-Oct-15 02:00N 53°31' W 003°42'1019.6
2018-Oct-15 01:30N 53°32' W 003°59'818.5
2018-Oct-15 01:03N 53°34' W 004°13'218.0
2018-Oct-15 00:58N 53°34' W 004°15'4817.5
2018-Oct-14 22:15N 53°26' W 005°34'516.8
2018-Oct-14 21:56N 53°25' W 005°43'19 9.9
2018-Oct-14 20:03N 53°21' W 006°13'6 1.6
2018-Oct-14 16:08N 53°21' W 006°02'119.8
2018-Oct-14 16:03N 53°21' W 006°00'119.4
2018-Oct-14 16:00N 53°22' W 005°59'1019.3
2018-Oct-14 15:29N 53°24' W 005°43'1019.0
2018-Oct-14 14:58N 53°27' W 005°27'6119.1
2018-Oct-14 11:48N 53°34' W 003°46'517.5
2018-Oct-14 11:30N 53°33' W 003°37'817.6
2018-Oct-14 11:03N 53°33' W 003°24'117.7
2018-Oct-14 11:01N 53°33' W 003°22'816.8
2018-Oct-14 10:30N 53°32' W 003°08'614.3
2018-Oct-14 10:03N 53°27' W 003°01'0 4.3
2018-Oct-14 10:00N 53°27' W 003°01'0 0.3
2018-Oct-14 09:30N 53°27' W 003°01'0 1.0
2018-Oct-14 09:02N 53°27' W 003°01'0 0.0
2018-Oct-14 08:59N 53°27' W 003°01'0 0.0
2018-Oct-14 08:29N 53°27' W 003°01'0 0.0
2018-Oct-14 08:02N 53°27' W 003°01'0 0.0
2018-Oct-14 07:59N 53°27' W 003°01'0 0.0
2018-Oct-14 07:28N 53°27' W 003°01'0 0.0
2018-Oct-14 07:01N 53°27' W 003°01'0 0.0
2018-Oct-14 06:58N 53°27' W 003°01'0 0.0
2018-Oct-14 06:28N 53°27' W 003°01'0 0.0
2018-Oct-14 06:01N 53°27' W 003°01'0 0.0
2018-Oct-14 05:58N 53°27' W 003°01'0 0.0
2018-Oct-14 05:28N 53°27' W 003°01'0 0.0
2018-Oct-14 05:03N 53°27' W 003°01'0 0.0
2018-Oct-14 04:57N 53°27' W 003°01'0 1.0
2018-Oct-14 04:30N 53°27' W 003°01'0 0.3
2018-Oct-14 04:03N 53°27' W 003°01'0 0.4
2018-Oct-14 04:00N 53°27' W 003°01'612.6
2018-Oct-14 03:30N 53°32' W 003°08'817.7
2018-Oct-14 03:03N 53°31' W 003°21'118.4
2018-Oct-14 03:00N 53°31' W 003°23'918.5
2018-Oct-14 02:30N 53°31' W 003°39'818.8
2018-Oct-14 02:03N 53°32' W 003°53'119.1
2018-Oct-14 02:00N 53°32' W 003°55'1118.1
2018-Oct-14 01:25N 53°34' W 004°12'5416.8
2018-Oct-13 22:11N 53°25' W 005°42'316.3
2018-Oct-13 22:02N 53°24' W 005°46'116.5
2018-Oct-13 21:57N 53°24' W 005°48'13 2.3
2018-Oct-13 16:14N 53°21' W 006°10'212.2
2018-Oct-13 16:03N 53°20' W 006°06'115.8
2018-Oct-13 16:00N 53°20' W 006°05'917.9
2018-Oct-13 15:30N 53°23' W 005°51'7419.1
2018-Oct-13 11:36N 53°34' W 003°47'217.1
2018-Oct-13 11:30N 53°33' W 003°44'716.7
2018-Oct-13 11:03N 53°33' W 003°32'116.4
2018-Oct-13 11:00N 53°33' W 003°30'816.9
2018-Oct-13 10:30N 53°32' W 003°16'714.6
2018-Oct-13 10:03N 53°30' W 003°06'115.1
2018-Oct-13 10:00N 53°29' W 003°05'3 6.5
2018-Oct-13 09:30N 53°27' W 003°01'0 0.7
2018-Oct-13 09:03N 53°27' W 003°01'0 2.4
2018-Oct-13 09:00N 53°27' W 003°01'0 0.2
2018-Oct-13 08:30N 53°27' W 003°01'0 0.0
2018-Oct-13 08:03N 53°27' W 003°01'0 0.0
2018-Oct-13 08:00N 53°27' W 003°01'0 0.0
2018-Oct-13 07:30N 53°27' W 003°01'0 0.0
2018-Oct-13 07:03N 53°27' W 003°01'0 0.0
2018-Oct-13 06:57N 53°27' W 003°01'0 0.0
2018-Oct-13 06:29N 53°27' W 003°01'0 0.0
2018-Oct-13 06:02N 53°27' W 003°01'0 0.0
2018-Oct-13 05:59N 53°27' W 003°01'0 0.0
2018-Oct-13 05:29N 53°27' W 003°01'0 0.0
2018-Oct-13 05:02N 53°27' W 003°01'0 0.0
2018-Oct-13 04:56N 53°27' W 003°01'0 0.0
2018-Oct-13 04:29N 53°27' W 003°01'0 1.0
2018-Oct-13 04:01N 53°27' W 003°01'0 0.3
2018-Oct-13 03:58N 53°27' W 003°01'0 0.3
2018-Oct-13 03:30N 53°27' W 003°01'612.8
2018-Oct-13 03:04N 53°31' W 003°07'117.1
2018-Oct-13 03:00N 53°32' W 003°08'917.6
2018-Oct-13 02:30N 53°31' W 003°23'818.1
2018-Oct-13 02:03N 53°31' W 003°37'117.9
2018-Oct-13 02:00N 53°31' W 003°39'918.5
2018-Oct-13 01:30N 53°32' W 003°54'918.9
2018-Oct-13 01:03N 53°34' W 004°08'119.2
2018-Oct-13 01:00N 53°34' W 004°10'5416.9
2018-Oct-12 21:48N 53°26' W 005°40'1915.6
2018-Oct-12 20:35N 53°21' W 006°10'2 6.8
2018-Oct-12 20:22N 53°21' W 006°13'0 0.0
2018-Oct-12 15:16N 53°21' W 006°13'0 0.0
2018-Oct-12 14:39N 53°21' W 006°13'0 0.0
2018-Oct-12 12:41N 53°21' W 006°13'0 0.0
2018-Oct-12 11:11N 53°21' W 006°13'0 0.0
2018-Oct-12 09:13N 53°21' W 006°13'0 0.0
2018-Oct-12 08:46N 53°21' W 006°13'1 0.4
2018-Oct-12 05:24N 53°21' W 006°11'410.0
2018-Oct-12 05:03N 53°20' W 006°05'211.1
2018-Oct-12 04:53N 53°21' W 006°02'513.0
2018-Oct-12 04:31N 53°23' W 005°55'1114.0
2018-Oct-12 03:44N 53°27' W 005°38'414.1
2018-Oct-12 03:28N 53°27' W 005°31'3814.1
2018-Oct-12 00:48N 53°34' W 004°29'2215.6
2018-Oct-11 23:22N 53°34' W 003°52'515.9
2018-Oct-11 23:03N 53°34' W 003°44'115.5
2018-Oct-11 23:00N 53°34' W 003°42'815.5
2018-Oct-11 22:30N 53°33' W 003°29'715.4
2018-Oct-11 22:03N 53°32' W 003°18'115.3
2018-Oct-11 22:00N 53°32' W 003°17'714.4
2018-Oct-11 21:30N 53°29' W 003°05'3 7.7
2018-Oct-11 21:04N 53°27' W 003°01'0 2.3
2018-Oct-11 21:00N 53°27' W 003°01'0 0.1
2018-Oct-11 20:31N 53°27' W 003°01'0 0.9
2018-Oct-11 20:01N 53°27' W 003°01'0 0.0
2018-Oct-11 19:58N 53°27' W 003°01'0 0.0
2018-Oct-11 19:30N 53°27' W 003°01'0 0.0
2018-Oct-11 19:03N 53°27' W 003°01'0 0.0
2018-Oct-11 19:00N 53°27' W 003°01'0 0.0
2018-Oct-11 18:30N 53°27' W 003°01'0 0.0
2018-Oct-11 18:03N 53°27' W 003°01'0 0.0
2018-Oct-11 18:00N 53°27' W 003°01'0 0.0
2018-Oct-11 17:30N 53°27' W 003°01'0 0.0
2018-Oct-11 17:02N 53°27' W 003°01'0 0.0
2018-Oct-11 16:59N 53°27' W 003°01'0 0.0
2018-Oct-11 16:29N 53°27' W 003°01'0 0.0
2018-Oct-11 16:02N 53°27' W 003°01'0 0.0
2018-Oct-11 15:59N 53°27' W 003°01'0 0.8
2018-Oct-11 15:29N 53°27' W 003°01'0 0.3
2018-Oct-11 15:03N 53°27' W 003°01'0 2.1
2018-Oct-11 15:00N 53°27' W 003°01'612.8
2018-Oct-11 14:30N 53°32' W 003°08'917.1
2018-Oct-11 14:00N 53°31' W 003°22'917.7
2018-Oct-11 13:30N 53°31' W 003°37'817.9
2018-Oct-11 13:03N 53°32' W 003°51'117.7
2018-Oct-11 13:00N 53°32' W 003°52'917.7
2018-Oct-11 12:30N 53°34' W 004°07'5818.8
2018-Oct-11 09:24N 53°25' W 005°43'1018.9
2018-Oct-11 08:54N 53°21' W 005°59'615.5
2018-Oct-11 08:30N 53°21' W 006°09'3 0.9
2018-Oct-11 05:35N 53°21' W 006°13'0 0.0
2018-Oct-11 04:19N 53°21' W 006°13'0 0.5
2018-Oct-11 04:03N 53°21' W 006°13'3 7.3
2018-Oct-11 03:35N 53°20' W 006°07'215.7
2018-Oct-11 03:28N 53°20' W 006°04'717.6
2018-Oct-11 03:03N 53°23' W 005°53'117.2
2018-Oct-11 02:59N 53°24' W 005°51'816.8
2018-Oct-11 02:29N 53°26' W 005°38'6018.0
2018-Oct-10 23:10N 53°34' W 003°58'618.1
2018-Oct-10 22:50N 53°34' W 003°48'515.9
2018-Oct-10 22:30N 53°33' W 003°39'715.5
2018-Oct-10 22:03N 53°33' W 003°27'115.9
2018-Oct-10 22:00N 53°33' W 003°26'815.8
2018-Oct-10 21:30N 53°31' W 003°13'714.7
2018-Oct-10 21:03N 53°28' W 003°03'115.3
2018-Oct-10 21:00N 53°27' W 003°02'1 1.7
2018-Oct-10 20:30N 53°27' W 003°01'0 0.9
2018-Oct-10 20:00N 53°27' W 003°01'0 0.0
2018-Oct-10 19:30N 53°27' W 003°01'0 0.0
2018-Oct-10 19:03N 53°27' W 003°01'0 0.0
2018-Oct-10 19:00N 53°27' W 003°01'0 0.0
2018-Oct-10 18:30N 53°27' W 003°01'0 0.0
2018-Oct-10 18:03N 53°27' W 003°01'0 0.0
2018-Oct-10 18:00N 53°27' W 003°01'0 0.0
2018-Oct-10 17:29N 53°27' W 003°01'0 0.0
2018-Oct-10 17:02N 53°27' W 003°01'0 0.0
2018-Oct-10 16:59N 53°27' W 003°01'0 0.0
2018-Oct-10 16:29N 53°27' W 003°01'0 0.0
2018-Oct-10 16:03N 53°27' W 003°01'0 0.0
2018-Oct-10 16:00N 53°27' W 003°01'0 0.9
2018-Oct-10 15:30N 53°27' W 003°01'0 0.2
2018-Oct-10 15:03N 53°27' W 003°01'0 8.7
2018-Oct-10 15:00N 53°27' W 003°02'713.6
2018-Oct-10 14:31N 53°32' W 003°10'816.8
2018-Oct-10 14:01N 53°31' W 003°25'917.1
2018-Oct-10 13:31N 53°31' W 003°39'817.2
2018-Oct-10 13:04N 53°32' W 003°52'117.1
2018-Oct-10 13:00N 53°32' W 003°53'917.5
2018-Oct-10 12:30N 53°33' W 004°08'817.6
2018-Oct-10 12:03N 53°35' W 004°21'  
Track history (hours):
 
Tides and Currents Weather Stations Pressure Air Temp Water Temp Dewpoint Dewpoint Depression Visibility Wind Speed Wind Dir Waves Ship Positions

Norbank

Operator: P & O Ferries

Last reported at 2018-Oct-20 11:57 UTC. Time now 2018-Oct-20 13:41 UTC.
Position N 53°35' W 004°12'.

Length 167 m; draft 5.6 m.

Type: Ship (hazmat cat A). MMSI: 246213000.

Date/timePositionNaut miles runAvg speedWind from/ knotsBaromVisibWave heightAir tempDewpointWater temp
2018-Oct-20 11:57N 53°35' W 004°12'1919.4
2018-Oct-20 10:57N 53°33' W 003°40'919.6
2018-Oct-20 10:30N 53°32' W 003°25'818.9
2018-Oct-20 10:04N 53°32' W 003°11'119.2
2018-Oct-20 10:01N 53°32' W 003°09'713.5
2018-Oct-20 09:30N 53°27' W 003°01'0 0.0
2018-Oct-20 09:03N 53°27' W 003°01'0 0.0
2018-Oct-20 09:00N 53°27' W 003°01'0 0.9
2018-Oct-20 08:28N 53°27' W 003°01'0 0.0
2018-Oct-20 08:01N 53°27' W 003°01'0 0.0
2018-Oct-20 07:58N 53°27' W 003°01'0 0.0
2018-Oct-20 07:28N 53°27' W 003°01'0 0.0
2018-Oct-20 07:01N 53°27' W 003°01'0 0.0
2018-Oct-20 06:58N 53°27' W 003°01'0 0.0
2018-Oct-20 06:30N 53°27' W 003°01'0 0.0
2018-Oct-20 06:03N 53°27' W 003°01'0 0.0
2018-Oct-20 05:57N 53°27' W 003°01'0 0.0
2018-Oct-20 05:30N 53°27' W 003°01'0 0.0
2018-Oct-20 05:03N 53°27' W 003°01'0 0.0
2018-Oct-20 05:00N 53°27' W 003°01'0 0.0
2018-Oct-20 04:30N 53°27' W 003°01'0 0.9
2018-Oct-20 04:02N 53°27' W 003°01'0 0.9
2018-Oct-20 03:59N 53°27' W 003°01'0 0.1
2018-Oct-20 03:30N 53°27' W 003°01'4 8.6
2018-Oct-20 03:03N 53°30' W 003°05'115.5
2018-Oct-20 03:00N 53°31' W 003°06'816.1
2018-Oct-20 02:30N 53°31' W 003°20'818.2
2018-Oct-20 02:03N 53°31' W 003°33'118.6
2018-Oct-20 02:00N 53°31' W 003°35'1019.4
2018-Oct-20 01:30N 53°33' W 003°51'3619.6
2018-Oct-19 23:39N 53°34' W 004°52'318.0
2018-Oct-19 23:30N 53°33' W 004°57'2218.6
2018-Oct-19 22:18N 53°27' W 005°32'1019.0
2018-Oct-19 21:46N 53°24' W 005°49'618.7
2018-Oct-19 21:27N 53°22' W 005°58'9 6.3
2018-Oct-19 20:03N 53°21' W 006°13'0 0.0
2018-Oct-19 16:46N 53°21' W 006°13'0 0.5
2018-Oct-19 16:12N 53°21' W 006°13'2 7.5
2018-Oct-19 15:57N 53°21' W 006°10'715.7
2018-Oct-19 15:29N 53°22' W 005°58'1018.6
2018-Oct-19 14:58N 53°25' W 005°42'918.7
2018-Oct-19 14:30N 53°27' W 005°28'6517.7
2018-Oct-19 10:51N 53°33' W 003°40'617.4
2018-Oct-19 10:30N 53°33' W 003°30'817.2
2018-Oct-19 10:03N 53°32' W 003°17'117.4
2018-Oct-19 10:00N 53°32' W 003°16'816.4
2018-Oct-19 09:30N 53°28' W 003°03'2 3.8
2018-Oct-19 09:03N 53°27' W 003°01'0 0.0
2018-Oct-19 09:01N 53°27' W 003°01'0 0.9
2018-Oct-19 08:30N 53°27' W 003°01'0 0.0
2018-Oct-19 08:01N 53°27' W 003°01'0 0.0
2018-Oct-19 07:52N 53°27' W 003°01'0 0.0
2018-Oct-19 07:28N 53°27' W 003°01'0 0.0
2018-Oct-19 07:01N 53°27' W 003°01'0 0.0
2018-Oct-19 06:27N 53°27' W 003°01'0 0.0
2018-Oct-19 06:03N 53°27' W 003°01'0 0.0
2018-Oct-19 06:00N 53°27' W 003°01'0 0.0
2018-Oct-19 05:27N 53°27' W 003°01'0 0.0
2018-Oct-19 05:03N 53°27' W 003°01'0 0.0
2018-Oct-19 05:00N 53°27' W 003°01'0 0.0
2018-Oct-19 04:29N 53°27' W 003°01'0 1.0
2018-Oct-19 04:03N 53°27' W 003°01'0 0.3
2018-Oct-19 04:00N 53°27' W 003°01'0 0.2
2018-Oct-19 03:30N 53°27' W 003°01'714.5
2018-Oct-19 03:04N 53°32' W 003°09'118.6
2018-Oct-19 03:00N 53°32' W 003°10'917.6
2018-Oct-19 02:31N 53°32' W 003°25'816.7
2018-Oct-19 02:03N 53°32' W 003°38'117.6
2018-Oct-19 02:01N 53°32' W 003°39'1418.4
2018-Oct-19 01:16N 53°33' W 004°02'5518.2
2018-Oct-18 22:16N 53°26' W 005°33'2018.7
2018-Oct-18 21:13N 53°20' W 006°04'313.5
2018-Oct-18 20:58N 53°21' W 006°10'2 0.7
2018-Oct-18 18:09N 53°21' W 006°13'1 0.7
2018-Oct-18 16:06N 53°21' W 006°11'110.2
2018-Oct-18 16:00N 53°21' W 006°09'816.0
2018-Oct-18 15:30N 53°23' W 005°56'918.0
2018-Oct-18 15:01N 53°25' W 005°42'018.5
2018-Oct-18 15:00N 53°25' W 005°41'917.3
2018-Oct-18 14:30N 53°27' W 005°27'6217.8
2018-Oct-18 11:02N 53°33' W 003°44'219.7
2018-Oct-18 10:57N 53°33' W 003°41'919.6
2018-Oct-18 10:30N 53°33' W 003°27'919.1
2018-Oct-18 10:03N 53°31' W 003°13'118.1
2018-Oct-18 10:00N 53°32' W 003°11'815.3
2018-Oct-18 09:30N 53°27' W 003°01'0 0.3
2018-Oct-18 09:03N 53°27' W 003°01'0 0.5
2018-Oct-18 09:00N 53°27' W 003°01'0 0.8
2018-Oct-18 08:30N 53°27' W 003°01'0 0.0
2018-Oct-18 08:03N 53°27' W 003°01'0 0.0
2018-Oct-18 08:00N 53°27' W 003°01'0 0.0
2018-Oct-18 07:26N 53°27' W 003°01'0 0.0
2018-Oct-18 07:02N 53°27' W 003°01'0 0.0
2018-Oct-18 06:59N 53°27' W 003°01'0 0.0
2018-Oct-18 06:29N 53°27' W 003°01'0 0.0
2018-Oct-18 06:02N 53°27' W 003°01'0 0.0
2018-Oct-18 05:59N 53°27' W 003°01'0 0.0
2018-Oct-18 05:29N 53°27' W 003°01'0 0.0
2018-Oct-18 05:01N 53°27' W 003°01'0 0.0
2018-Oct-18 04:58N 53°27' W 003°01'0 0.1
2018-Oct-18 04:28N 53°27' W 003°01'0 1.0
2018-Oct-18 04:02N 53°27' W 003°01'0 0.0
2018-Oct-18 03:59N 53°27' W 003°01'0 0.3
2018-Oct-18 03:31N 53°27' W 003°01'714.4
2018-Oct-18 03:03N 53°32' W 003°09'118.8
2018-Oct-18 03:00N 53°32' W 003°10'918.6
2018-Oct-18 02:30N 53°31' W 003°26'918.6
2018-Oct-18 02:03N 53°30' W 003°40'116.9
2018-Oct-18 02:00N 53°30' W 003°42'6716.4
2018-Oct-17 21:53N 53°26' W 005°35'918.8
2018-Oct-17 21:24N 53°23' W 005°49'918.7
2018-Oct-17 20:56N 53°20' W 006°03'611.2
2018-Oct-17 20:25N 53°21' W 006°12'0 0.8
2018-Oct-17 19:54N 53°21' W 006°13'0 0.0
2018-Oct-17 17:53N 53°21' W 006°13'1 0.5
2018-Oct-17 16:02N 53°21' W 006°11'0 8.9
2018-Oct-17 15:59N 53°21' W 006°11'714.7
2018-Oct-17 15:29N 53°22' W 005°59'818.4
2018-Oct-17 15:02N 53°24' W 005°45'118.0
2018-Oct-17 14:59N 53°25' W 005°44'918.0
2018-Oct-17 14:28N 53°27' W 005°29'6616.7
2018-Oct-17 10:31N 53°33' W 003°38'016.2
2018-Oct-17 10:31N 53°33' W 003°38'716.6
2018-Oct-17 10:04N 53°33' W 003°26'116.6
2018-Oct-17 10:01N 53°33' W 003°24'816.8
2018-Oct-17 09:31N 53°32' W 003°10'716.3
2018-Oct-17 09:04N 53°27' W 003°01'0 3.0
2018-Oct-17 09:00N 53°27' W 003°01'0 0.1
2018-Oct-17 08:30N 53°27' W 003°01'0 1.0
2018-Oct-17 08:03N 53°27' W 003°01'0 0.0
2018-Oct-17 08:00N 53°27' W 003°01'0 0.0
2018-Oct-17 07:30N 53°27' W 003°01'0 0.0
2018-Oct-17 07:03N 53°27' W 003°01'0 0.0
2018-Oct-17 06:59N 53°27' W 003°01'0 0.0
2018-Oct-17 06:29N 53°27' W 003°01'0 0.0
2018-Oct-17 06:02N 53°27' W 003°01'0 0.0
2018-Oct-17 05:59N 53°27' W 003°01'0 0.0
2018-Oct-17 05:29N 53°27' W 003°01'0 0.0
2018-Oct-17 05:02N 53°27' W 003°01'0 0.0
2018-Oct-17 04:59N 53°27' W 003°01'0 0.0
2018-Oct-17 04:28N 53°27' W 003°01'0 0.5
2018-Oct-17 04:03N 53°27' W 003°01'0 2.7
2018-Oct-17 03:58N 53°27' W 003°01'0 0.3
2018-Oct-17 03:30N 53°27' W 003°01'614.4
2018-Oct-17 03:03N 53°32' W 003°08'119.1
2018-Oct-17 03:00N 53°32' W 003°10'918.3
2018-Oct-17 02:30N 53°31' W 003°25'716.6
2018-Oct-17 02:03N 53°31' W 003°38'116.2
2018-Oct-17 02:00N 53°31' W 003°39'916.7
2018-Oct-17 01:26N 53°32' W 003°55'5816.6
2018-Oct-16 21:55N 53°27' W 005°32'2216.2
2018-Oct-16 20:34N 53°21' W 006°08'111.0
2018-Oct-16 20:29N 53°21' W 006°10'2 0.5
2018-Oct-16 16:29N 53°21' W 006°13'1 2.2
2018-Oct-16 16:03N 53°21' W 006°12'0 6.9
2018-Oct-16 16:00N 53°21' W 006°11'714.1
2018-Oct-16 15:30N 53°22' W 005°59'816.3
2018-Oct-16 15:02N 53°25' W 005°47'116.2
2018-Oct-16 15:00N 53°25' W 005°46'917.1
2018-Oct-16 14:30N 53°26' W 005°32'5616.1
2018-Oct-16 11:01N 53°34' W 003°59'1316.1
2018-Oct-16 10:13N 53°33' W 003°37'316.8
2018-Oct-16 10:03N 53°33' W 003°33'116.9
2018-Oct-16 10:00N 53°33' W 003°31'917.1
2018-Oct-16 09:30N 53°32' W 003°17'715.8
2018-Oct-16 09:03N 53°30' W 003°06'117.5
2018-Oct-16 09:01N 53°29' W 003°05'3 6.6
2018-Oct-16 08:30N 53°27' W 003°01'0 1.0
2018-Oct-16 08:03N 53°27' W 003°01'0 0.0
2018-Oct-16 08:00N 53°27' W 003°01'0 0.0
2018-Oct-16 07:30N 53°27' W 003°01'0 0.0
2018-Oct-16 07:03N 53°27' W 003°01'0 0.0
2018-Oct-16 07:00N 53°27' W 003°01'0 0.0
2018-Oct-16 06:30N 53°27' W 003°01'0 0.0
2018-Oct-16 06:02N 53°27' W 003°01'0 0.0
2018-Oct-16 05:59N 53°27' W 003°01'0 0.0
2018-Oct-16 05:29N 53°27' W 003°01'0 0.0
2018-Oct-16 05:02N 53°27' W 003°01'0 0.0
2018-Oct-16 04:59N 53°27' W 003°01'0 0.0
2018-Oct-16 04:29N 53°27' W 003°01'0 0.5
2018-Oct-16 04:03N 53°27' W 003°01'0 2.7
2018-Oct-16 04:00N 53°27' W 003°01'0 0.7
2018-Oct-16 03:30N 53°27' W 003°01'613.6
2018-Oct-16 03:03N 53°31' W 003°08'118.0
2018-Oct-16 03:00N 53°32' W 003°09'917.8
2018-Oct-16 02:30N 53°31' W 003°24'715.7
2018-Oct-16 02:03N 53°31' W 003°36'116.0
2018-Oct-16 02:01N 53°31' W 003°37'816.2
2018-Oct-16 01:31N 53°32' W 003°51'4016.2
2018-Oct-15 23:02N 53°34' W 004°58'3116.9
2018-Oct-15 21:13N 53°24' W 005°47'316.7
2018-Oct-15 21:02N 53°23' W 005°52'616.8
2018-Oct-15 20:39N 53°21' W 006°02'611.9
2018-Oct-15 20:08N 53°21' W 006°12'1 2.8
2018-Oct-15 19:55N 53°21' W 006°13'0 0.0
2018-Oct-15 16:29N 53°21' W 006°13'4 5.9
2018-Oct-15 15:50N 53°20' W 006°07'714.9
2018-Oct-15 15:24N 53°23' W 005°56'1216.4
2018-Oct-15 14:41N 53°25' W 005°37'416.9
2018-Oct-15 14:27N 53°26' W 005°31'6615.8
2018-Oct-15 10:16N 53°33' W 003°40'417.0
2018-Oct-15 10:03N 53°33' W 003°34'117.0
2018-Oct-15 10:00N 53°33' W 003°32'817.2
2018-Oct-15 09:30N 53°32' W 003°18'716.4
2018-Oct-15 09:03N 53°31' W 003°06'116.7
2018-Oct-15 09:00N 53°30' W 003°05'4 7.6
2018-Oct-15 08:30N 53°27' W 003°01'0 0.8
2018-Oct-15 08:03N 53°27' W 003°01'0 2.8
2018-Oct-15 08:00N 53°27' W 003°01'0 0.1
2018-Oct-15 07:28N 53°27' W 003°01'0 0.0
2018-Oct-15 07:01N 53°27' W 003°01'0 0.0
2018-Oct-15 06:58N 53°27' W 003°01'0 0.0
2018-Oct-15 06:28N 53°27' W 003°01'0 0.0
2018-Oct-15 06:01N 53°27' W 003°01'0 0.0
2018-Oct-15 05:58N 53°27' W 003°01'0 0.0
2018-Oct-15 05:28N 53°27' W 003°01'0 0.0
2018-Oct-15 05:03N 53°27' W 003°01'0 0.0
2018-Oct-15 05:00N 53°27' W 003°01'0 0.0
2018-Oct-15 04:30N 53°27' W 003°01'0 0.9
2018-Oct-15 04:02N 53°27' W 003°01'0 0.0
2018-Oct-15 03:59N 53°27' W 003°01'0 0.3
2018-Oct-15 03:31N 53°27' W 003°01'714.4
2018-Oct-15 03:03N 53°32' W 003°09'118.4
2018-Oct-15 03:00N 53°32' W 003°10'918.7
2018-Oct-15 02:30N 53°31' W 003°26'919.2
2018-Oct-15 02:03N 53°31' W 003°41'119.2
2018-Oct-15 02:00N 53°31' W 003°42'1019.6
2018-Oct-15 01:30N 53°32' W 003°59'818.5
2018-Oct-15 01:03N 53°34' W 004°13'218.0
2018-Oct-15 00:58N 53°34' W 004°15'4817.5
2018-Oct-14 22:15N 53°26' W 005°34'516.8
2018-Oct-14 21:56N 53°25' W 005°43'19 9.9
2018-Oct-14 20:03N 53°21' W 006°13'6 1.6
2018-Oct-14 16:08N 53°21' W 006°02'119.8
2018-Oct-14 16:03N 53°21' W 006°00'119.4
2018-Oct-14 16:00N 53°22' W 005°59'1019.3
2018-Oct-14 15:29N 53°24' W 005°43'1019.0
2018-Oct-14 14:58N 53°27' W 005°27'6119.1
2018-Oct-14 11:48N 53°34' W 003°46'517.5
2018-Oct-14 11:30N 53°33' W 003°37'817.6
2018-Oct-14 11:03N 53°33' W 003°24'117.7
2018-Oct-14 11:01N 53°33' W 003°22'816.8
2018-Oct-14 10:30N 53°32' W 003°08'614.3
2018-Oct-14 10:03N 53°27' W 003°01'0 4.3
2018-Oct-14 10:00N 53°27' W 003°01'0 0.3
2018-Oct-14 09:30N 53°27' W 003°01'0 1.0
2018-Oct-14 09:02N 53°27' W 003°01'0 0.0
2018-Oct-14 08:59N 53°27' W 003°01'0 0.0
2018-Oct-14 08:29N 53°27' W 003°01'0 0.0
2018-Oct-14 08:02N 53°27' W 003°01'0 0.0
2018-Oct-14 07:59N 53°27' W 003°01'0 0.0
2018-Oct-14 07:28N 53°27' W 003°01'0 0.0
2018-Oct-14 07:01N 53°27' W 003°01'0 0.0
2018-Oct-14 06:58N 53°27' W 003°01'0 0.0
2018-Oct-14 06:28N 53°27' W 003°01'0 0.0
2018-Oct-14 06:01N 53°27' W 003°01'0 0.0
2018-Oct-14 05:58N 53°27' W 003°01'0 0.0
2018-Oct-14 05:28N 53°27' W 003°01'0 0.0
2018-Oct-14 05:03N 53°27' W 003°01'0 0.0
2018-Oct-14 04:57N 53°27' W 003°01'0 1.0
2018-Oct-14 04:30N 53°27' W 003°01'0 0.3
2018-Oct-14 04:03N 53°27' W 003°01'0 0.4
2018-Oct-14 04:00N 53°27' W 003°01'612.6
2018-Oct-14 03:30N 53°32' W 003°08'817.7
2018-Oct-14 03:03N 53°31' W 003°21'118.4
2018-Oct-14 03:00N 53°31' W 003°23'918.5
2018-Oct-14 02:30N 53°31' W 003°39'818.8
2018-Oct-14 02:03N 53°32' W 003°53'119.1
2018-Oct-14 02:00N 53°32' W 003°55'1118.1
2018-Oct-14 01:25N 53°34' W 004°12'5416.8
2018-Oct-13 22:11N 53°25' W 005°42'316.3
2018-Oct-13 22:02N 53°24' W 005°46'116.5
2018-Oct-13 21:57N 53°24' W 005°48'13 2.3
2018-Oct-13 16:14N 53°21' W 006°10'212.2
2018-Oct-13 16:03N 53°20' W 006°06'115.8
2018-Oct-13 16:00N 53°20' W 006°05'917.9
2018-Oct-13 15:30N 53°23' W 005°51'7419.1
2018-Oct-13 11:36N 53°34' W 003°47'217.1
2018-Oct-13 11:30N 53°33' W 003°44'716.7
2018-Oct-13 11:03N 53°33' W 003°32'116.4
2018-Oct-13 11:00N 53°33' W 003°30'816.9
2018-Oct-13 10:30N 53°32' W 003°16'714.6
2018-Oct-13 10:03N 53°30' W 003°06'115.1
2018-Oct-13 10:00N 53°29' W 003°05'3 6.5
2018-Oct-13 09:30N 53°27' W 003°01'0 0.7
2018-Oct-13 09:03N 53°27' W 003°01'0 2.4
2018-Oct-13 09:00N 53°27' W 003°01'0 0.2
2018-Oct-13 08:30N 53°27' W 003°01'0 0.0
2018-Oct-13 08:03N 53°27' W 003°01'0 0.0
2018-Oct-13 08:00N 53°27' W 003°01'0 0.0
2018-Oct-13 07:30N 53°27' W 003°01'0 0.0
2018-Oct-13 07:03N 53°27' W 003°01'0 0.0
2018-Oct-13 06:57N 53°27' W 003°01'0 0.0
2018-Oct-13 06:29N 53°27' W 003°01'0 0.0
2018-Oct-13 06:02N 53°27' W 003°01'0 0.0
2018-Oct-13 05:59N 53°27' W 003°01'0 0.0
2018-Oct-13 05:29N 53°27' W 003°01'0 0.0
2018-Oct-13 05:02N 53°27' W 003°01'0 0.0
2018-Oct-13 04:56N 53°27' W 003°01'0 0.0
2018-Oct-13 04:29N 53°27' W 003°01'0 1.0
2018-Oct-13 04:01N 53°27' W 003°01'0 0.3
2018-Oct-13 03:58N 53°27' W 003°01'0 0.3
2018-Oct-13 03:30N 53°27' W 003°01'612.8
2018-Oct-13 03:04N 53°31' W 003°07'117.1
2018-Oct-13 03:00N 53°32' W 003°08'917.6
2018-Oct-13 02:30N 53°31' W 003°23'818.1
2018-Oct-13 02:03N 53°31' W 003°37'117.9
2018-Oct-13 02:00N 53°31' W 003°39'918.5
2018-Oct-13 01:30N 53°32' W 003°54'918.9
2018-Oct-13 01:03N 53°34' W 004°08'119.2
2018-Oct-13 01:00N 53°34' W 004°10'5416.9
2018-Oct-12 21:48N 53°26' W 005°40'1915.6
2018-Oct-12 20:35N 53°21' W 006°10'2 6.8
2018-Oct-12 20:22N 53°21' W 006°13'0 0.0
2018-Oct-12 15:16N 53°21' W 006°13'0 0.0
2018-Oct-12 14:39N 53°21' W 006°13'0 0.0
2018-Oct-12 12:41N 53°21' W 006°13'0 0.0
2018-Oct-12 11:11N 53°21' W 006°13'0 0.0
2018-Oct-12 09:13N 53°21' W 006°13'0 0.0
2018-Oct-12 08:46N 53°21' W 006°13'1 0.4
2018-Oct-12 05:24N 53°21' W 006°11'410.0
2018-Oct-12 05:03N 53°20' W 006°05'211.1
2018-Oct-12 04:53N 53°21' W 006°02'513.0
2018-Oct-12 04:31N 53°23' W 005°55'1114.0
2018-Oct-12 03:44N 53°27' W 005°38'414.1
2018-Oct-12 03:28N 53°27' W 005°31'3814.1
2018-Oct-12 00:48N 53°34' W 004°29'2215.6
2018-Oct-11 23:22N 53°34' W 003°52'515.9
2018-Oct-11 23:03N 53°34' W 003°44'115.5
2018-Oct-11 23:00N 53°34' W 003°42'815.5
2018-Oct-11 22:30N 53°33' W 003°29'715.4
2018-Oct-11 22:03N 53°32' W 003°18'115.3
2018-Oct-11 22:00N 53°32' W 003°17'714.4
2018-Oct-11 21:30N 53°29' W 003°05'3 7.7
2018-Oct-11 21:04N 53°27' W 003°01'0 2.3
2018-Oct-11 21:00N 53°27' W 003°01'0 0.1
2018-Oct-11 20:31N 53°27' W 003°01'0 0.9
2018-Oct-11 20:01N 53°27' W 003°01'0 0.0
2018-Oct-11 19:58N 53°27' W 003°01'0 0.0
2018-Oct-11 19:30N 53°27' W 003°01'0 0.0
2018-Oct-11 19:03N 53°27' W 003°01'0 0.0
2018-Oct-11 19:00N 53°27' W 003°01'0 0.0
2018-Oct-11 18:30N 53°27' W 003°01'0 0.0
2018-Oct-11 18:03N 53°27' W 003°01'0 0.0
2018-Oct-11 18:00N 53°27' W 003°01'0 0.0
2018-Oct-11 17:30N 53°27' W 003°01'0 0.0
2018-Oct-11 17:02N 53°27' W 003°01'0 0.0
2018-Oct-11 16:59N 53°27' W 003°01'0 0.0
2018-Oct-11 16:29N 53°27' W 003°01'0 0.0
2018-Oct-11 16:02N 53°27' W 003°01'0 0.0
2018-Oct-11 15:59N 53°27' W 003°01'0 0.8
2018-Oct-11 15:29N 53°27' W 003°01'0 0.3
2018-Oct-11 15:03N 53°27' W 003°01'0 2.1
2018-Oct-11 15:00N 53°27' W 003°01'612.8
2018-Oct-11 14:30N 53°32' W 003°08'917.1
2018-Oct-11 14:00N 53°31' W 003°22'917.7
2018-Oct-11 13:30N 53°31' W 003°37'817.9
2018-Oct-11 13:03N 53°32' W 003°51'117.7
2018-Oct-11 13:00N 53°32' W 003°52'917.7
2018-Oct-11 12:30N 53°34' W 004°07'5818.8
2018-Oct-11 09:24N 53°25' W 005°43'1018.9
2018-Oct-11 08:54N 53°21' W 005°59'615.5
2018-Oct-11 08:30N 53°21' W 006°09'3 0.9
2018-Oct-11 05:35N 53°21' W 006°13'0 0.0
2018-Oct-11 04:19N 53°21' W 006°13'0 0.5
2018-Oct-11 04:03N 53°21' W 006°13'3 7.3
2018-Oct-11 03:35N 53°20' W 006°07'215.7
2018-Oct-11 03:28N 53°20' W 006°04'717.6
2018-Oct-11 03:03N 53°23' W 005°53'117.2
2018-Oct-11 02:59N 53°24' W 005°51'816.8
2018-Oct-11 02:29N 53°26' W 005°38'6018.0
2018-Oct-10 23:10N 53°34' W 003°58'618.1
2018-Oct-10 22:50N 53°34' W 003°48'515.9
2018-Oct-10 22:30N 53°33' W 003°39'715.5
2018-Oct-10 22:03N 53°33' W 003°27'115.9
2018-Oct-10 22:00N 53°33' W 003°26'815.8
2018-Oct-10 21:30N 53°31' W 003°13'714.7
2018-Oct-10 21:03N 53°28' W 003°03'115.3
2018-Oct-10 21:00N 53°27' W 003°02'1 1.7
2018-Oct-10 20:30N 53°27' W 003°01'0 0.9
2018-Oct-10 20:00N 53°27' W 003°01'0 0.0
2018-Oct-10 19:30N 53°27' W 003°01'0 0.0
2018-Oct-10 19:03N 53°27' W 003°01'0 0.0
2018-Oct-10 19:00N 53°27' W 003°01'0 0.0
2018-Oct-10 18:30N 53°27' W 003°01'0 0.0
2018-Oct-10 18:03N 53°27' W 003°01'0 0.0
2018-Oct-10 18:00N 53°27' W 003°01'0 0.0
2018-Oct-10 17:29N 53°27' W 003°01'0 0.0
2018-Oct-10 17:02N 53°27' W 003°01'0 0.0
2018-Oct-10 16:59N 53°27' W 003°01'0 0.0
2018-Oct-10 16:29N 53°27' W 003°01'0 0.0
2018-Oct-10 16:03N 53°27' W 003°01'0 0.0
2018-Oct-10 16:00N 53°27' W 003°01'0 0.9
2018-Oct-10 15:30N 53°27' W 003°01'0 0.2
2018-Oct-10 15:03N 53°27' W 003°01'0 8.7
2018-Oct-10 15:00N 53°27' W 003°02'713.6
2018-Oct-10 14:31N 53°32' W 003°10'816.8
2018-Oct-10 14:01N 53°31' W 003°25'917.1
2018-Oct-10 13:31N 53°31' W 003°39'817.2
2018-Oct-10 13:04N 53°32' W 003°52'117.1
2018-Oct-10 13:00N 53°32' W 003°53'917.5
2018-Oct-10 12:30N 53°33' W 004°08'817.6
2018-Oct-10 12:03N 53°35' W 004°21'  

Dump ship's entire track history